createdAt,value
2022-10-04T14:04:17.351Z,1016.58
2022-10-04T14:05:17.599Z,1016.62
2022-10-04T14:06:17.370Z,1016.52
2022-10-04T14:07:17.301Z,1016.52
2022-10-04T14:08:17.348Z,1016.56
2022-10-04T14:09:17.283Z,1016.45
2022-10-04T14:10:17.262Z,1016.43
2022-10-04T14:11:17.258Z,1016.45
2022-10-04T14:12:17.285Z,1016.42
2022-10-04T14:13:17.226Z,1016.35
2022-10-04T14:14:17.241Z,1016.36
2022-10-04T14:15:17.193Z,1016.38
2022-10-04T14:16:17.227Z,1016.31
2022-10-04T14:17:17.220Z,1016.33
2022-10-04T14:18:17.314Z,1016.33
2022-10-04T14:19:17.141Z,1016.29
2022-10-04T14:20:17.401Z,1016.26
2022-10-04T14:21:19.627Z,1016.23
2022-10-04T14:22:17.413Z,1016.23
2022-10-04T14:23:17.146Z,1016.19
2022-10-04T14:24:17.186Z,1016.18
2022-10-04T14:25:21.129Z,1016.18
2022-10-04T14:26:17.105Z,1016.26
2022-10-04T14:27:17.998Z,1016.20
2022-10-04T14:28:17.089Z,1016.18
2022-10-04T14:29:17.035Z,1016.18
2022-10-04T14:30:17.010Z,1016.21
2022-10-04T14:31:17.051Z,1016.26
2022-10-04T14:32:17.076Z,1016.20
2022-10-04T14:33:16.961Z,1016.22
2022-10-04T14:34:17.045Z,1016.18
2022-10-04T14:35:16.953Z,1016.21
2022-10-04T14:36:16.962Z,1016.11
2022-10-04T14:37:16.922Z,1016.20
2022-10-04T14:38:16.914Z,1016.23
2022-10-04T14:39:16.903Z,1016.19
2022-10-04T14:40:16.907Z,1016.17
2022-10-04T14:41:16.919Z,1016.17
2022-10-04T14:42:16.878Z,1016.17
2022-10-04T14:43:16.841Z,1016.27
2022-10-04T14:44:16.821Z,1016.22
2022-10-04T14:45:16.814Z,1016.19
2022-10-04T14:46:16.921Z,1016.12
2022-10-04T14:47:16.800Z,1016.20
2022-10-04T14:48:16.763Z,1016.30
2022-10-04T14:49:16.758Z,1016.30
2022-10-04T14:50:16.762Z,1016.30
2022-10-04T14:51:16.816Z,1016.26
2022-10-04T14:52:16.765Z,1016.27
2022-10-04T14:53:16.699Z,1016.28
2022-10-04T14:54:16.721Z,1016.32
2022-10-04T14:55:16.747Z,1016.31
2022-10-04T14:56:16.687Z,1016.34
2022-10-04T14:57:16.742Z,1016.38
2022-10-04T14:58:16.704Z,1016.38
2022-10-04T14:59:16.665Z,1016.34
2022-10-04T15:00:16.689Z,1016.34
2022-10-04T15:01:16.728Z,1016.31
2022-10-04T15:02:16.694Z,1016.29
2022-10-04T15:03:16.692Z,1016.26
2022-10-04T15:04:16.662Z,1016.27
2022-10-04T15:05:16.598Z,1016.17
2022-10-04T15:06:16.808Z,1016.21
2022-10-04T15:07:16.609Z,1016.26
2022-10-04T15:08:17.248Z,1016.12
2022-10-04T15:09:18.415Z,1016.15
2022-10-04T15:10:16.968Z,1016.12
2022-10-04T15:11:16.695Z,1016.20
2022-10-04T15:12:36.463Z,1016.25
2022-10-04T15:13:17.444Z,1016.21
2022-10-04T15:14:16.585Z,1016.22
2022-10-04T15:15:16.830Z,1016.19
2022-10-04T15:16:16.504Z,1016.21
2022-10-04T15:17:16.469Z,1016.13
2022-10-04T15:18:16.418Z,1016.18
2022-10-04T15:19:16.446Z,1016.07
2022-10-04T15:20:16.367Z,1016.11
2022-10-04T15:21:16.350Z,1016.13
2022-10-04T15:22:16.407Z,1016.06
2022-10-04T15:23:16.368Z,1016.17
2022-10-04T15:24:16.345Z,1016.14
2022-10-04T15:25:16.328Z,1016.15
2022-10-04T15:26:16.278Z,1016.27
2022-10-04T15:27:16.480Z,1016.22
2022-10-04T15:28:16.330Z,1016.30
2022-10-04T15:29:16.319Z,1016.28
2022-10-04T15:30:16.244Z,1016.25
2022-10-04T15:31:16.666Z,1016.23
2022-10-04T15:32:16.211Z,1016.29
2022-10-04T15:33:16.204Z,1016.32
2022-10-04T15:34:16.227Z,1016.29
2022-10-04T15:35:16.219Z,1016.34
2022-10-04T15:36:16.180Z,1016.32
2022-10-04T15:37:16.165Z,1016.27
2022-10-04T15:38:16.128Z,1016.24
2022-10-04T15:39:16.122Z,1016.19
2022-10-04T15:40:16.109Z,1016.19
2022-10-04T15:41:20.143Z,1016.21
2022-10-04T15:42:16.077Z,1016.15
2022-10-04T15:43:16.065Z,1016.08
2022-10-04T15:44:20.353Z,1016.13
2022-10-04T15:45:16.066Z,1016.04
2022-10-04T15:46:16.091Z,1016.11
2022-10-04T15:47:16.016Z,1016.08
2022-10-04T15:48:15.997Z,1016.10
2022-10-04T15:49:15.992Z,1016.07
2022-10-04T15:50:15.989Z,1016.03
2022-10-04T15:51:16.012Z,1016.04
2022-10-04T15:52:16.007Z,1016.02
2022-10-04T15:53:20.103Z,1015.97
2022-10-04T15:54:15.964Z,1015.93
2022-10-04T15:55:15.945Z,1015.96
2022-10-04T15:56:15.951Z,1015.95
2022-10-04T15:57:15.872Z,1015.96
2022-10-04T15:58:17.583Z,1015.97
2022-10-04T15:59:15.877Z,1015.95
2022-10-04T16:00:15.864Z,1016.05
2022-10-04T16:01:15.897Z,1016.01
2022-10-04T16:02:17.699Z,1016.05
2022-10-04T16:03:15.848Z,1015.99
2022-10-04T16:04:16.586Z,1016.01
2022-10-04T16:05:15.854Z,1015.99
2022-10-04T16:06:15.881Z,1015.98
2022-10-04T16:07:16.101Z,1015.93
2022-10-04T16:08:15.746Z,1015.94
2022-10-04T16:09:16.000Z,1015.92
2022-10-04T16:10:15.713Z,1015.96
2022-10-04T16:11:15.716Z,1015.90
2022-10-04T16:12:20.173Z,1015.86
2022-10-04T16:13:15.769Z,1015.84
2022-10-04T16:14:15.833Z,1015.93
2022-10-04T16:15:15.652Z,1015.92
2022-10-04T16:16:15.942Z,1015.91
2022-10-04T16:17:15.981Z,1015.92
2022-10-04T16:18:15.725Z,1015.93
2022-10-04T16:19:15.625Z,1015.91
2022-10-04T16:20:15.600Z,1015.93
2022-10-04T16:21:15.583Z,1015.92
2022-10-04T16:22:15.700Z,1015.91
2022-10-04T16:23:15.537Z,1015.90
2022-10-04T16:24:15.530Z,1015.87
2022-10-04T16:25:15.527Z,1015.92
2022-10-04T16:26:15.565Z,1015.86
2022-10-04T16:27:15.516Z,1015.87
2022-10-04T16:28:15.550Z,1015.93
2022-10-04T16:29:15.503Z,1015.90
2022-10-04T16:30:26.557Z,1015.85
2022-10-04T16:31:20.092Z,1015.90
2022-10-04T16:32:15.450Z,1015.97
2022-10-04T16:33:15.428Z,1016.06
2022-10-04T16:34:15.438Z,1016.04
2022-10-04T16:35:16.200Z,1016.08
2022-10-04T16:36:15.432Z,1016.07
2022-10-04T16:37:15.434Z,1015.99
2022-10-04T16:38:15.385Z,1015.97
2022-10-04T16:39:15.342Z,1015.95
2022-10-04T16:40:16.030Z,1015.87
2022-10-04T16:41:15.411Z,1015.84
2022-10-04T16:42:15.651Z,1015.79
2022-10-04T16:43:15.317Z,1015.83
2022-10-04T16:44:15.291Z,1015.84
2022-10-04T16:45:15.268Z,1015.81
2022-10-04T16:46:15.379Z,1015.90
2022-10-04T16:47:15.261Z,1015.88
2022-10-04T16:48:15.256Z,1015.84
2022-10-04T16:49:18.122Z,1015.84
2022-10-04T16:50:15.580Z,1015.89
2022-10-04T16:51:16.231Z,1015.87
2022-10-04T16:52:17.014Z,1015.80
2022-10-04T16:53:17.398Z,1015.80
2022-10-04T16:54:15.136Z,1015.90
2022-10-04T16:55:15.444Z,1015.92
2022-10-04T16:56:15.155Z,1015.88
2022-10-04T20:25:36.851Z,1016.07
2022-10-04T20:26:36.565Z,1016.01
2022-10-04T20:27:36.561Z,1016.03
2022-10-04T20:28:36.984Z,1016.04
2022-10-04T20:29:36.532Z,1016.03
2022-10-04T20:30:36.501Z,1016.07
2022-10-04T20:31:36.608Z,1016.13
2022-10-04T20:32:36.464Z,1016.08
2022-10-04T20:33:36.495Z,1015.99
2022-10-04T20:34:36.445Z,1015.94
2022-10-04T20:35:36.431Z,1015.89
2022-10-04T20:36:36.475Z,1015.88
2022-10-04T20:37:36.445Z,1015.87
2022-10-04T20:38:36.426Z,1015.80
2022-10-04T20:39:36.378Z,1015.83
2022-10-04T20:40:36.397Z,1015.85
2022-10-04T20:41:36.322Z,1015.81
2022-10-04T20:42:36.385Z,1015.83
2022-10-04T20:43:36.358Z,1015.74
2022-10-04T20:44:36.568Z,1015.73
2022-10-04T20:45:36.401Z,1015.86
2022-10-04T20:46:36.297Z,1015.84
2022-10-04T20:47:36.260Z,1015.77
2022-10-04T20:48:36.289Z,1015.67
2022-10-04T20:49:36.550Z,1015.68
2022-10-04T20:50:36.208Z,1015.72
2022-10-04T20:51:36.468Z,1015.69
2022-10-04T20:53:08.561Z,1015.72
2022-10-04T20:54:08.257Z,1015.69
2022-10-04T20:55:08.315Z,1015.65
2022-10-04T20:56:08.248Z,1015.65
2022-10-04T20:57:08.227Z,1015.52
2022-10-04T20:58:08.209Z,1015.57
2022-10-04T20:59:08.215Z,1015.53
2022-10-04T21:00:08.466Z,1015.44
2022-10-04T21:01:08.183Z,1015.52
2022-10-04T21:02:08.232Z,1015.45
2022-10-04T21:03:08.133Z,1015.39
2022-10-04T21:04:08.099Z,1015.38
2022-10-04T21:05:08.099Z,1015.34
2022-10-04T21:06:08.084Z,1015.36
